createdAt,value
2022-09-15T00:02:03.849Z,21.33
2022-09-15T00:04:33.206Z,21.35
2022-09-15T00:07:02.414Z,21.30
2022-09-15T00:09:33.149Z,21.37
2022-09-15T00:12:03.362Z,21.35
2022-09-15T00:14:32.533Z,21.23
2022-09-15T00:17:01.655Z,21.19
2022-09-15T00:19:33.891Z,21.15
2022-09-15T00:22:03.245Z,21.17
2022-09-15T00:24:34.019Z,21.21
2022-09-15T00:27:03.346Z,21.17
2022-09-15T00:29:32.367Z,21.18
2022-09-15T00:32:01.283Z,21.11
2022-09-15T00:34:30.403Z,21.31
2022-09-15T00:36:59.509Z,21.33
2022-09-15T00:39:28.423Z,21.15
2022-09-15T00:41:59.046Z,21.12
2022-09-15T00:44:52.288Z,21.06
2022-09-15T00:47:25.913Z,21.10
2022-09-15T00:50:01.278Z,21.06
2022-09-15T00:52:37.689Z,21.02
2022-09-15T00:55:11.417Z,21.05
2022-09-15T00:57:46.295Z,21.04
2022-09-15T01:00:20.036Z,21.08
2022-09-15T01:02:50.534Z,21.06
2022-09-15T01:05:24.866Z,20.99
2022-09-15T01:07:58.395Z,21.03
2022-09-15T01:10:30.809Z,21.09
2022-09-15T01:13:05.767Z,21.09
2022-09-15T01:15:48.172Z,21.02
2022-09-15T01:18:23.370Z,21.01
2022-09-15T01:21:17.554Z,20.96
2022-09-15T01:24:44.043Z,20.93
2022-09-15T01:27:53.380Z,20.87
2022-09-15T01:30:25.470Z,20.86
2022-09-15T01:33:25.905Z,20.89
2022-09-15T01:36:04.048Z,20.92
2022-09-15T01:38:50.271Z,20.90
2022-09-15T01:41:25.560Z,20.93
2022-09-15T01:44:02.361Z,20.89
2022-09-15T01:46:37.207Z,20.91
2022-09-15T01:49:09.646Z,20.86
2022-09-15T01:51:41.342Z,20.86
2022-09-15T01:54:11.974Z,20.79
2022-09-15T01:56:42.381Z,20.86
2022-09-15T01:59:13.325Z,20.79
2022-09-15T02:01:49.906Z,20.72
2022-09-15T02:04:25.026Z,20.75
2022-09-15T02:07:01.079Z,20.74
2022-09-15T02:09:34.940Z,20.73
2022-09-15T02:12:10.706Z,20.65
2022-09-15T02:14:49.427Z,20.67
2022-09-15T02:17:22.409Z,20.71
2022-09-15T02:19:57.196Z,20.62
2022-09-15T02:22:28.894Z,20.56
2022-09-15T02:25:03.148Z,20.57
2022-09-15T02:27:37.864Z,20.52
2022-09-15T02:30:12.514Z,20.47
2022-09-15T02:32:51.156Z,20.38
2022-09-15T02:35:20.518Z,20.48
2022-09-15T02:37:50.534Z,20.71
2022-09-15T02:40:19.966Z,20.65
2022-09-15T02:42:55.960Z,20.52
2022-09-15T02:45:26.979Z,20.52
2022-09-15T02:47:57.963Z,20.57
2022-09-15T02:50:27.996Z,20.56
2022-09-15T02:52:57.158Z,20.53
2022-09-15T02:55:29.174Z,20.45
2022-09-15T02:57:58.297Z,20.43
2022-09-15T03:00:28.556Z,20.41
2022-09-15T03:02:59.163Z,20.42
2022-09-15T03:05:30.335Z,20.35
2022-09-15T03:07:59.688Z,20.32
2022-09-15T03:10:28.783Z,20.31
2022-09-15T03:12:58.694Z,20.38
2022-09-15T03:15:29.243Z,20.35
2022-09-15T03:18:00.501Z,20.40
2022-09-15T03:20:30.460Z,20.43
2022-09-15T03:22:59.610Z,20.44
2022-09-15T03:25:29.058Z,20.42
2022-09-15T03:27:58.303Z,20.39
2022-09-15T03:30:27.582Z,20.31
2022-09-15T03:32:56.502Z,20.29
2022-09-15T03:35:27.019Z,20.21
2022-09-15T03:37:56.387Z,20.20
2022-09-15T03:40:25.446Z,20.12
2022-09-15T03:42:54.526Z,20.16
2022-09-15T03:45:23.478Z,20.18
2022-09-15T03:47:52.617Z,20.29
2022-09-15T03:50:21.717Z,20.16
2022-09-15T03:52:56.710Z,20.18
2022-09-15T03:55:28.210Z,20.16
2022-09-15T03:57:57.967Z,20.30
2022-09-15T04:00:27.536Z,20.12
2022-09-15T04:02:57.045Z,20.05
2022-09-15T04:05:26.119Z,19.99
2022-09-15T04:08:14.250Z,19.91
2022-09-15T04:10:43.406Z,19.87
2022-09-15T04:13:12.397Z,19.87
2022-09-15T04:15:41.491Z,20.11
2022-09-15T04:18:11.371Z,20.03
2022-09-15T04:20:40.943Z,19.86
2022-09-15T04:23:09.961Z,19.96
2022-09-15T04:25:40.435Z,19.86
2022-09-15T04:28:09.522Z,19.96
2022-09-15T04:30:38.546Z,20.06
2022-09-15T04:33:08.352Z,19.90
2022-09-15T04:35:37.447Z,19.86
2022-09-15T04:38:08.020Z,19.82
2022-09-15T04:40:36.918Z,19.99
2022-09-15T04:43:16.784Z,20.10
2022-09-15T04:45:45.809Z,19.67
2022-09-15T04:48:14.891Z,19.82
2022-09-15T04:50:44.092Z,19.82
2022-09-15T04:53:14.479Z,20.05
2022-09-15T04:55:45.269Z,19.90
2022-09-15T04:58:15.706Z,19.85
2022-09-15T05:00:44.925Z,19.81
2022-09-15T05:03:15.668Z,19.83
2022-09-15T05:05:44.869Z,19.91
2022-09-15T05:08:13.712Z,19.79
2022-09-15T05:10:43.076Z,20.02
2022-09-15T05:13:12.041Z,19.90
2022-09-15T05:15:42.531Z,19.84
2022-09-15T05:18:11.426Z,19.84
2022-09-15T05:20:40.424Z,19.98
2022-09-15T05:23:10.670Z,20.03
2022-09-15T05:25:39.488Z,20.06
2022-09-15T05:28:08.906Z,19.93
2022-09-15T05:30:44.379Z,19.90
2022-09-15T05:33:13.939Z,19.99
2022-09-15T05:35:52.630Z,19.90
2022-09-15T05:38:22.045Z,19.87
2022-09-15T05:40:51.078Z,19.87
2022-09-15T05:43:20.474Z,19.98
2022-09-15T05:45:57.272Z,19.96
2022-09-15T05:48:26.385Z,20.17
2022-09-15T05:50:56.783Z,20.16
2022-09-15T05:53:26.917Z,20.07
2022-09-15T05:56:00.630Z,20.04
2022-09-15T05:58:29.643Z,19.95
2022-09-15T06:01:07.776Z,20.03
2022-09-15T06:03:38.127Z,20.09
2022-09-15T06:06:08.698Z,19.98
2022-09-15T06:08:43.916Z,20.09
2022-09-15T06:11:16.250Z,20.16
2022-09-15T06:13:46.523Z,20.24
2022-09-15T06:16:19.787Z,20.28
2022-09-15T06:18:50.206Z,20.28
2022-09-15T06:21:21.879Z,20.01
2022-09-15T06:23:55.614Z,20.01
2022-09-15T06:26:25.200Z,20.11
2022-09-15T06:28:57.326Z,20.19
2022-09-15T06:31:31.602Z,20.06
2022-09-15T06:34:02.533Z,20.15
2022-09-15T06:36:32.867Z,20.24
2022-09-15T06:39:04.431Z,20.22
2022-09-15T06:41:58.321Z,20.22
2022-09-15T06:44:23.328Z,20.39
2022-09-15T06:46:54.034Z,20.36
2022-09-15T06:49:23.006Z,20.24
2022-09-15T06:51:52.156Z,20.30
2022-09-15T06:54:21.662Z,20.38
2022-09-15T06:56:51.147Z,20.38
2022-09-15T06:59:20.168Z,20.50
2022-09-15T07:01:55.707Z,20.43
2022-09-15T07:04:24.751Z,20.44
2022-09-15T07:06:53.789Z,20.48
2022-09-15T07:09:23.174Z,20.44
2022-09-15T07:11:52.201Z,20.43
2022-09-15T07:14:21.217Z,20.45
2022-09-15T07:16:50.614Z,20.47
2022-09-15T07:19:21.748Z,20.56
2022-09-15T07:21:52.939Z,20.73
2022-09-15T07:24:22.170Z,20.74
2022-09-15T07:26:52.186Z,20.78
2022-09-15T07:29:21.115Z,20.88
2022-09-15T07:31:50.751Z,20.84
2022-09-15T07:34:21.189Z,20.76
2022-09-15T07:36:50.332Z,20.83
2022-09-15T07:39:22.430Z,20.94
2022-09-15T07:41:51.447Z,20.96
2022-09-15T07:44:20.773Z,21.04
2022-09-15T07:46:49.787Z,20.92
2022-09-15T07:49:20.145Z,20.85
2022-09-15T07:51:49.237Z,21.09
2022-09-15T07:54:22.659Z,20.97
2022-09-15T07:56:52.245Z,20.96
2022-09-15T07:59:21.234Z,21.03
2022-09-15T08:01:51.263Z,21.07
2022-09-15T08:04:22.407Z,21.17
2022-09-15T08:06:52.737Z,21.22
2022-09-15T08:09:21.974Z,21.22
2022-09-15T08:11:53.832Z,21.25
2022-09-15T08:14:23.095Z,21.35
2022-09-15T08:16:52.227Z,21.36
2022-09-15T08:19:23.174Z,21.57
2022-09-15T08:21:52.040Z,21.78
2022-09-15T08:24:22.751Z,21.69
2022-09-15T08:26:52.077Z,21.68
2022-09-15T08:29:21.270Z,21.76
2022-09-15T08:31:50.580Z,21.83
2022-09-15T08:34:22.114Z,21.84
2022-09-15T08:36:51.228Z,22.01
2022-09-15T08:39:20.642Z,22.20
2022-09-15T08:41:52.349Z,22.08
2022-09-15T08:44:38.302Z,22.04
2022-09-15T08:47:17.264Z,22.16
2022-09-15T08:49:59.926Z,22.16
2022-09-15T08:52:35.782Z,22.22
2022-09-15T08:55:13.604Z,22.14
2022-09-15T08:57:42.744Z,22.36
2022-09-15T09:00:18.381Z,22.38
2022-09-15T09:03:06.441Z,22.37
2022-09-15T09:05:52.149Z,22.25
2022-09-15T09:09:00.410Z,22.22
2022-09-15T09:11:48.535Z,22.10
2022-09-15T09:14:27.439Z,22.13
2022-09-15T09:17:21.329Z,22.10
2022-09-15T09:20:15.653Z,22.19
2022-09-15T09:22:49.068Z,22.16
2022-09-15T09:25:27.529Z,22.21
2022-09-15T09:27:59.337Z,22.29
2022-09-15T09:30:34.293Z,22.18
2022-09-15T09:33:30.416Z,22.18
2022-09-15T09:36:02.715Z,22.29
2022-09-15T09:38:37.147Z,22.41
2022-09-15T09:41:12.207Z,22.44
2022-09-15T09:43:42.414Z,22.50
2022-09-15T09:46:16.621Z,22.52
2022-09-15T09:48:50.561Z,22.66
2022-09-15T09:51:38.446Z,22.59
2022-09-15T09:54:15.475Z,22.61
2022-09-15T09:56:47.326Z,22.44
2022-09-15T09:59:42.579Z,22.38
2022-09-15T10:02:20.720Z,22.35
2022-09-15T10:04:51.923Z,22.41
2022-09-15T10:07:24.825Z,22.51
2022-09-15T10:09:58.234Z,22.55
2022-09-15T10:12:32.613Z,22.38
2022-09-15T10:15:05.078Z,22.36
2022-09-15T10:17:43.990Z,22.19
2022-09-15T10:20:32.671Z,22.08
2022-09-15T10:23:10.903Z,22.07
2022-09-15T10:25:58.540Z,22.06
2022-09-15T10:28:42.027Z,22.07
2022-09-15T10:31:18.366Z,22.14
2022-09-15T10:33:48.132Z,22.25
2022-09-15T10:36:21.643Z,22.44
2022-09-15T10:38:57.450Z,22.42
2022-09-15T10:41:35.134Z,22.50
2022-09-15T10:44:24.294Z,22.61
2022-09-15T10:47:05.607Z,22.12
2022-09-15T10:49:52.057Z,22.32
2022-09-15T10:52:36.187Z,22.19
2022-09-15T10:55:51.101Z,22.24
2022-09-15T10:58:49.542Z,22.08
2022-09-15T11:01:54.227Z,22.02
2022-09-15T11:04:51.066Z,21.76
2022-09-15T11:07:35.345Z,21.81
2022-09-15T11:10:22.980Z,21.55
2022-09-15T11:13:05.940Z,21.36
2022-09-15T11:15:56.200Z,21.24
2022-09-15T11:18:57.480Z,21.30
2022-09-15T11:21:38.848Z,21.59
2022-09-15T11:24:38.182Z,21.48
2022-09-15T11:27:15.713Z,21.74
2022-09-15T11:30:04.191Z,21.24
2022-09-15T11:32:42.683Z,20.76
2022-09-15T11:35:36.558Z,20.50
2022-09-15T11:38:32.515Z,20.38
2022-09-15T11:41:21.419Z,20.38
2022-09-15T11:44:16.215Z,20.40
2022-09-15T11:47:28.629Z,20.44
2022-09-15T11:50:10.781Z,20.49
2022-09-15T11:52:54.354Z,20.62
2022-09-15T11:55:35.272Z,20.72
2022-09-15T11:58:22.071Z,20.82
2022-09-15T12:00:57.326Z,21.14
2022-09-15T12:03:32.358Z,21.80
2022-09-15T12:06:09.056Z,21.91
2022-09-15T12:08:43.519Z,21.90
2022-09-15T12:11:18.737Z,22.13
2022-09-15T12:13:48.323Z,21.98
2022-09-15T12:16:19.037Z,22.12
2022-09-15T12:18:52.819Z,22.34
2022-09-15T12:21:34.197Z,22.55
2022-09-15T12:24:14.351Z,22.25
2022-09-15T12:26:46.849Z,22.22
2022-09-15T12:29:41.867Z,22.12
2022-09-15T12:32:25.517Z,21.73
2022-09-15T12:35:31.856Z,21.63
2022-09-15T12:38:02.574Z,21.63
2022-09-15T12:40:37.993Z,21.74
2022-09-15T12:43:23.044Z,21.64
2022-09-15T12:45:57.874Z,21.40
2022-09-15T12:48:30.407Z,21.50
2022-09-15T12:51:03.126Z,21.40
2022-09-15T12:53:37.753Z,21.76
2022-09-15T12:56:10.519Z,21.54
2022-09-15T12:58:43.648Z,21.40
2022-09-15T13:01:35.697Z,21.31
2022-09-15T13:04:45.814Z,21.25
2022-09-15T13:07:35.698Z,21.18
2022-09-15T13:10:34.158Z,21.15
2022-09-15T13:13:28.768Z,21.06
2022-09-15T13:16:04.123Z,21.00
2022-09-15T13:18:36.470Z,20.86
2022-09-15T13:21:13.990Z,20.91
2022-09-15T13:23:45.536Z,21.25
2022-09-15T13:26:24.034Z,20.86
2022-09-15T13:28:56.396Z,21.03
2022-09-15T13:31:37.455Z,20.83
2022-09-15T13:35:16.797Z,20.64
2022-09-15T13:38:23.953Z,20.72
2022-09-15T13:41:40.315Z,20.61
2022-09-15T13:44:43.183Z,20.76
2022-09-15T13:47:28.343Z,20.50
2022-09-15T13:50:09.169Z,20.54
2022-09-15T13:53:15.236Z,20.43
2022-09-15T13:55:46.701Z,20.61
2022-09-15T14:01:12.590Z,20.29
2022-09-15T14:03:48.402Z,20.34
2022-09-15T14:06:22.395Z,20.46
2022-09-15T14:08:55.315Z,20.51
2022-09-15T14:11:28.638Z,20.65
2022-09-15T14:14:00.813Z,20.62
2022-09-15T14:16:37.398Z,20.67
2022-09-15T14:19:32.444Z,20.68
2022-09-15T14:22:02.509Z,20.60
2022-09-15T14:24:33.345Z,20.60
2022-09-15T14:27:10.356Z,20.84
2022-09-15T14:29:43.309Z,20.60
2022-09-15T14:32:17.416Z,20.80
2022-09-15T14:37:22.582Z,20.67
2022-09-15T14:39:56.626Z,20.73
2022-09-15T14:42:30.836Z,20.80
2022-09-15T14:48:18.009Z,20.74
2022-09-15T14:51:00.982Z,20.75
2022-09-15T14:53:35.626Z,20.54
2022-09-15T14:56:10.574Z,20.51
2022-09-15T14:58:45.696Z,20.62
2022-09-15T15:01:18.707Z,20.64
2022-09-15T15:03:57.170Z,20.70
2022-09-15T15:06:34.154Z,20.78
2022-09-15T15:09:08.144Z,20.73
2022-09-15T15:11:38.229Z,20.74
2022-09-15T15:14:11.439Z,20.70
2022-09-15T15:16:53.577Z,20.66
2022-09-15T15:19:42.682Z,20.74
2022-09-15T15:22:22.336Z,20.67
2022-09-15T15:24:53.550Z,20.62
2022-09-15T15:27:40.268Z,20.61
2022-09-15T15:30:37.141Z,20.57
2022-09-15T15:33:17.438Z,20.54
2022-09-15T15:36:07.424Z,20.47
2022-09-15T15:38:38.769Z,20.49
2022-09-15T15:41:09.188Z,20.52
2022-09-15T15:43:38.442Z,20.56
2022-09-15T15:46:08.436Z,20.47
2022-09-15T15:48:38.856Z,20.53
2022-09-15T15:51:09.498Z,20.40
2022-09-15T15:53:40.160Z,20.35
2022-09-15T15:56:09.871Z,20.43
2022-09-15T15:58:38.867Z,20.39
2022-09-15T16:01:12.999Z,20.44
2022-09-15T16:03:42.012Z,20.50
2022-09-15T16:06:13.615Z,20.35
2022-09-15T16:08:45.358Z,20.36
2022-09-15T16:11:17.484Z,20.23
2022-09-15T16:13:47.057Z,20.25
2022-09-15T16:16:19.969Z,20.37
2022-09-15T16:18:50.130Z,20.25
2022-09-15T16:21:23.868Z,20.14
2022-09-15T16:23:52.906Z,20.11
2022-09-15T16:26:25.456Z,20.13
2022-09-15T16:28:54.429Z,20.10
2022-09-15T16:31:23.795Z,20.26
2022-09-15T16:33:53.387Z,20.04
2022-09-15T16:36:24.032Z,20.09
2022-09-15T16:38:53.509Z,20.28
2022-09-15T16:41:25.840Z,20.21
2022-09-15T16:43:55.969Z,20.07
2022-09-15T16:46:25.363Z,20.02
2022-09-15T16:48:54.418Z,19.98
2022-09-15T16:51:30.909Z,20.19
2022-09-15T16:54:00.719Z,20.21
2022-09-15T16:56:29.903Z,20.05
2022-09-15T16:59:00.653Z,20.17
2022-09-15T17:01:30.222Z,20.23
2022-09-15T17:03:59.405Z,20.13
2022-09-15T17:06:31.167Z,19.98
2022-09-15T17:09:00.096Z,19.93
2022-09-15T17:11:31.173Z,19.88
2022-09-15T17:14:00.568Z,19.82
2022-09-15T17:16:29.612Z,19.96
2022-09-15T17:18:58.554Z,19.89
2022-09-15T17:21:27.587Z,19.83
2022-09-15T17:23:57.990Z,19.77
2022-09-15T17:26:31.225Z,19.86
2022-09-15T17:29:00.476Z,19.84
2022-09-15T17:31:29.543Z,19.77
2022-09-15T17:33:58.786Z,19.95
2022-09-15T17:36:28.605Z,19.97
2022-09-15T17:38:59.345Z,19.80
2022-09-15T17:41:28.300Z,19.90
2022-09-15T17:43:57.806Z,19.86
2022-09-15T17:46:27.071Z,19.76
2022-09-15T17:48:56.256Z,19.85
2022-09-15T17:51:25.192Z,19.93
2022-09-15T17:53:55.207Z,20.02
2022-09-15T17:56:28.906Z,20.02
2022-09-15T17:58:58.556Z,19.94
2022-09-15T18:01:30.166Z,20.06
2022-09-15T18:03:59.821Z,19.83
2022-09-15T18:06:29.795Z,19.73
2022-09-15T18:08:59.346Z,19.76
2022-09-15T18:11:30.059Z,19.67
2022-09-15T18:13:59.459Z,19.77
2022-09-15T18:16:29.463Z,19.97
2022-09-15T18:18:58.435Z,19.99
2022-09-15T18:21:31.248Z,19.89
2022-09-15T18:24:00.722Z,19.81
2022-09-15T18:26:33.039Z,19.91
2022-09-15T18:29:03.791Z,19.63
2022-09-15T18:31:33.688Z,19.46
2022-09-15T18:34:02.661Z,19.44
2022-09-15T18:36:32.277Z,19.61
2022-09-15T18:39:01.315Z,19.57
2022-09-15T18:41:32.289Z,19.77
2022-09-15T18:44:01.442Z,19.58
2022-09-15T18:46:30.662Z,19.80
2022-09-15T18:49:00.387Z,19.86
2022-09-15T18:51:50.391Z,19.76
2022-09-15T18:54:19.883Z,19.64
2022-09-15T18:56:52.467Z,19.52
2022-09-15T18:59:24.571Z,19.81
2022-09-15T19:01:54.213Z,19.53
2022-09-15T19:04:28.389Z,19.51
2022-09-15T19:07:03.108Z,19.58
2022-09-15T19:09:31.973Z,19.49
2022-09-15T19:12:03.107Z,19.44
2022-09-15T19:14:32.464Z,19.59
2022-09-15T19:17:01.636Z,19.70
2022-09-15T19:19:30.668Z,19.53
2022-09-15T19:22:00.860Z,19.75
2022-09-15T19:24:33.803Z,19.52
2022-09-15T19:27:10.041Z,19.43
2022-09-15T19:29:40.009Z,19.75
2022-09-15T19:32:16.256Z,19.70
2022-09-15T19:34:47.175Z,19.82
2022-09-15T19:37:19.170Z,19.69
2022-09-15T19:39:49.142Z,19.41
2022-09-15T19:42:20.034Z,19.40
2022-09-15T19:44:49.605Z,19.27
2022-09-15T19:47:18.701Z,19.42
2022-09-15T19:49:47.631Z,19.50
2022-09-15T19:52:16.837Z,19.60
2022-09-15T19:54:46.069Z,19.39
2022-09-15T19:57:15.172Z,19.28
2022-09-15T19:59:46.212Z,19.31
2022-09-15T20:02:15.353Z,19.34
2022-09-15T20:04:44.628Z,19.51
2022-09-15T20:07:14.056Z,19.51
2022-09-15T20:09:43.576Z,19.40
2022-09-15T20:12:13.163Z,19.69
2022-09-15T20:14:44.493Z,19.77
2022-09-15T20:17:14.041Z,19.61
2022-09-15T20:19:43.472Z,19.45
2022-09-15T20:22:12.764Z,19.54
2022-09-15T20:24:42.525Z,19.52
2022-09-15T20:27:11.978Z,19.74
2022-09-15T20:29:41.913Z,19.62
2022-09-15T20:32:12.931Z,19.50
2022-09-15T20:34:42.215Z,19.60
2022-09-15T20:37:11.853Z,19.68
2022-09-15T20:39:41.067Z,19.59
2022-09-15T20:42:10.471Z,19.64
2022-09-15T20:44:48.736Z,19.68
2022-09-15T20:47:19.129Z,19.57
2022-09-15T20:49:48.082Z,19.46
2022-09-15T20:52:16.984Z,19.49
2022-09-15T20:54:45.701Z,19.51
2022-09-15T20:57:15.021Z,19.38
2022-09-15T20:59:44.370Z,19.35
2022-09-15T21:02:13.614Z,19.26
2022-09-15T21:04:43.994Z,19.50
2022-09-15T21:07:13.435Z,19.33
2022-09-15T21:09:43.316Z,19.46
2022-09-15T21:12:12.358Z,19.33
2022-09-15T21:14:41.310Z,19.28
2022-09-15T21:17:11.318Z,19.58
2022-09-15T21:19:40.662Z,19.47
2022-09-15T21:22:11.573Z,19.50
2022-09-15T21:24:40.869Z,19.51
2022-09-15T21:27:28.689Z,19.54
2022-09-15T21:29:58.186Z,19.49
2022-09-15T21:32:27.159Z,19.21
2022-09-15T21:34:56.070Z,19.37
2022-09-15T21:37:28.666Z,19.39
2022-09-15T21:39:57.891Z,19.08
2022-09-15T21:42:27.192Z,19.32
2022-09-15T21:44:56.235Z,19.12
2022-09-15T21:47:25.492Z,19.22
2022-09-15T21:49:55.265Z,19.30
2022-09-15T21:52:25.546Z,19.15
2022-09-15T21:54:56.065Z,19.24
2022-09-15T21:57:25.708Z,19.35
2022-09-15T21:59:54.670Z,19.31
2022-09-15T22:02:23.526Z,19.26
2022-09-15T22:04:53.384Z,19.36
2022-09-15T22:07:22.538Z,19.25
2022-09-15T22:09:52.370Z,19.04
2022-09-15T22:12:22.829Z,19.12
2022-09-15T22:14:52.314Z,19.29
2022-09-15T22:17:21.638Z,19.17
2022-09-15T22:19:50.593Z,19.41
2022-09-15T22:22:20.038Z,19.33
2022-09-15T22:24:50.146Z,19.17
2022-09-15T22:27:19.547Z,19.19
2022-09-15T22:29:49.802Z,19.12
2022-09-15T22:32:18.949Z,19.32
2022-09-15T22:34:48.233Z,19.24
2022-09-15T22:37:17.521Z,19.36
2022-09-15T22:39:58.932Z,19.29
2022-09-15T22:42:30.519Z,19.24
2022-09-15T22:45:01.295Z,19.07
2022-09-15T22:47:30.506Z,19.43
2022-09-15T22:49:59.880Z,19.20
2022-09-15T22:52:29.104Z,19.39
2022-09-15T22:54:58.185Z,19.39
2022-09-15T22:57:27.246Z,19.39
2022-09-15T22:59:56.451Z,19.26
2022-09-15T23:02:28.340Z,19.22
2022-09-15T23:04:57.737Z,19.18
2022-09-15T23:07:27.422Z,18.98
2022-09-15T23:09:57.424Z,19.02
2022-09-15T23:12:27.058Z,19.03
2022-09-15T23:14:56.166Z,18.99
2022-09-15T23:17:27.563Z,19.03
2022-09-15T23:19:56.593Z,19.09
2022-09-15T23:22:26.006Z,19.24
2022-09-15T23:24:55.196Z,19.34
2022-09-15T23:27:24.861Z,19.24
2022-09-15T23:29:53.988Z,19.25
2022-09-15T23:32:22.982Z,19.19
2022-09-15T23:34:53.936Z,19.11
2022-09-15T23:37:22.916Z,19.08
2022-09-15T23:39:52.725Z,19.23
2022-09-15T23:42:22.050Z,19.37
2022-09-15T23:44:51.319Z,19.29
2022-09-15T23:47:20.078Z,19.26
2022-09-15T23:49:49.941Z,19.42
2022-09-15T23:52:20.547Z,19.08
2022-09-15T23:54:50.005Z,19.07
2022-09-15T23:57:19.186Z,19.02
2022-09-15T23:59:48.244Z,18.97
